Flight Track Log - Related Links

Times and Time Zones

All times are in EDT time to prevent confusion due to time zone crossing. See the ACA288 flight status page for this flight to view local times or setup timezone preferences in your user account.

Time Position Orientation Groundspeed Altitude Reporting Facility
EDT Latitude Longitude Course Direction KTS MPH feet Rate Location/Type
Thu 10:12:00 AM 60.3799 -134.7400 141° Southeast  Level FlightAware Approximate
Thu 10:13:00 AM 60.3027 -134.6147 141° Southeast  Level FlightAware Approximate
Thu 10:14:00 AM 60.2264 -134.4877 140° Southeast  Level FlightAware Approximate
Thu 10:15:00 AM 60.1503 -134.3605 140° Southeast  Level FlightAware Approximate
Thu 10:16:00 AM 60.0740 -134.2339 140° Southeast  Level FlightAware Approximate
Thu 10:17:00 AM 59.9975 -134.1082 141° Southeast  Level FlightAware Approximate
Thu 10:18:00 AM 59.9207 -133.9835 141° Southeast  Level FlightAware Approximate
Thu 10:19:00 AM 59.8437 -133.8595 141° Southeast  Level FlightAware Approximate
Thu 10:20:00 AM 59.7666 -133.7362 141° Southeast  Level FlightAware Approximate
Thu 10:21:00 AM 59.6899 -133.6120 140° Southeast  Level FlightAware Approximate
Thu 10:22:00 AM 59.6137 -133.4871 140° Southeast  Level FlightAware Approximate
Thu 10:23:00 AM 59.5369 -133.3637 143° Southeast  Level FlightAware Approximate
Thu 10:24:00 AM 59.4582 -133.2455 143° Southeast  Level FlightAware Approximate
Thu 10:25:00 AM 59.3800 -133.1266 134° Southeast  Level FlightAware Approximate
Thu 10:26:00 AM 59.3035 -133.0047 146° Southeast  Level FlightAware Approximate
Thu 10:27:00 AM 59.2263 -132.8835 141° Southeast  Level FlightAware Approximate
Thu 10:28:00 AM 59.1493 -132.7624 141° Southeast  Level FlightAware Approximate
Thu 10:29:00 AM 59.0721 -132.6417 141° Southeast  Level FlightAware Approximate
Thu 10:30:00 AM 58.9942 -132.5231 142° Southeast  Level FlightAware Approximate
Thu 10:31:00 AM 58.9161 -132.4051 142° Southeast  Level FlightAware Approximate
Thu 10:32:00 AM 58.8380 -132.2876 142° Southeast  Level FlightAware Approximate
Thu 10:33:00 AM 58.7597 -132.1707 142° Southeast  Level FlightAware Approximate
Thu 10:34:00 AM 58.6813 -132.0543 142° Southeast  Level FlightAware Approximate
Thu 10:35:00 AM 58.6026 -131.9391 143° Southeast  Level FlightAware Approximate
Thu 10:36:00 AM 58.5232 -131.8257 143° Southeast  Level FlightAware Approximate
Thu 10:37:00 AM 58.4438 -131.7127 143° Southeast  Level FlightAware Approximate
Thu 10:38:00 AM 58.3643 -131.6003 143° Southeast  Level FlightAware Approximate
Thu 10:39:00 AM 58.2850 -131.4875 143° Southeast  Level FlightAware Approximate
Thu 10:40:00 AM 58.2062 -131.3737 143° Southeast  Level FlightAware Approximate
Thu 10:41:00 AM 58.1272 -131.2606 143° Southeast  Level FlightAware Approximate
Thu 10:42:00 AM 58.0482 -131.1479 143° Southeast  Level FlightAware Approximate
Thu 10:43:00 AM 57.9691 -131.0357 143° Southeast  Level FlightAware Approximate
Thu 10:44:00 AM 57.8898 -130.9240 143° Southeast  Level FlightAware Approximate
Thu 10:45:00 AM 57.8105 -130.8128 143° Southeast  Level FlightAware Approximate
Thu 10:46:00 AM 57.7311 -130.7020 143° Southeast  Level FlightAware Approximate
Thu 10:47:00 AM 57.6515 -130.5918 143° Southeast  Level FlightAware Approximate
Thu 10:48:00 AM 57.5717 -130.4826 144° Southeast  Level FlightAware Approximate
Thu 10:48:22 AM 57.0167 -129.8000 144° Southeast 460 529 31,000  Level Vancouver Center
Thu 10:49:00 AM 57.4917 -130.3740 144° Southeast  Level FlightAware Approximate
Thu 10:50:00 AM 57.4116 -130.2659 144° Southeast  Level FlightAware Approximate
Thu 10:50:00 AM 56.8905 -129.6057 140° Southeast  Level FlightAware Approximate
Thu 10:51:00 AM 57.3315 -130.1583 144° Southeast  Level FlightAware Approximate
Thu 10:52:00 AM 57.2512 -130.0512 144° Southeast  Level FlightAware Approximate
Thu 10:53:00 AM 57.1708 -129.9445 144° Southeast  Level FlightAware Approximate
Thu 10:53:45 AM 56.4667 -129.0833 145° Southeast 440 506 31,000  Level Vancouver Center
Thu 10:54:45 AM 56.3833 -128.9667 142° Southeast 420 483 31,000  Level Vancouver Center
Thu 10:55:45 AM 56.2667 -128.8667 155° Southeast 440 506 31,000  Level Vancouver Center
Thu 10:56:45 AM 56.1500 -128.7667 154° Southeast 440 506 31,000  Level Vancouver Center
Thu 10:57:00 AM 56.3200 -128.8476 145° Southeast  Level FlightAware Approximate
Thu 10:57:45 AM 56.0333 -128.6667 154° Southeast 430 495 31,000  Level Vancouver Center
Thu 10:58:00 AM 56.2371 -128.7439 145° Southeast  Level FlightAware Approximate
Thu 10:58:45 AM 55.9333 -128.5667 151° Southeast 430 495 31,000  Level Vancouver Center
Thu 10:59:45 AM 55.8333 -128.4500 147° Southeast 430 495 31,000  Level Vancouver Center
Thu 11:00:45 AM 55.7333 -128.3500 151° Southeast 430 495 31,000  Level Vancouver Center
Thu 11:01:45 AM 55.6167 -128.2833 162° South 460 529 31,000  Level Vancouver Center
Thu 11:02:45 AM 55.5000 -128.1833 154° Southeast 420 483 31,000  Level Vancouver Center
Thu 11:03:45 AM 55.4000 -128.0833 150° Southeast 430 495 31,000  Level Vancouver Center
Thu 11:04:45 AM 55.3000 -127.9833 150° Southeast 430 495 31,000  Level Vancouver Center
Thu 11:05:45 AM 55.2000 -127.8833 150° Southeast 440 506 31,000  Level Vancouver Center
Thu 11:06:45 AM 55.0833 -127.7833 154° Southeast 430 495 31,000  Level Vancouver Center
Thu 11:07:45 AM 54.9833 -127.7167 159° South 430 495 31,000  Level Vancouver Center
Thu 11:08:45 AM 54.8667 -127.6167 154° Southeast 430 495 31,000  Level Vancouver Center
Thu 11:09:45 AM 54.7667 -127.5333 154° Southeast 440 506 31,000  Level Vancouver Center
Thu 11:10:45 AM 54.6667 -127.4333 150° Southeast 430 495 31,000  Level Vancouver Center
Thu 11:11:45 AM 54.5500 -127.3333 154° Southeast 440 506 31,000  Level Vancouver Center
Thu 11:12:45 AM 54.4333 -127.2333 153° Southeast 430 495 31,000  Level Vancouver Center
Thu 11:13:45 AM 54.3333 -127.1667 159° South 420 483 31,000  Level Vancouver Center
Thu 11:14:45 AM 54.2167 -127.0833 157° South 420 483 31,000  Level Vancouver Center
Thu 11:15:45 AM 54.1167 -126.9833 150° Southeast 420 483 31,000  Level Vancouver Center
Thu 11:16:45 AM 54.0000 -126.9000 157° South 420 483 31,000  Level Vancouver Center
Thu 11:17:45 AM 53.9167 -126.8333 155° Southeast 430 495 31,000  Level Vancouver Center
Thu 11:18:45 AM 53.8000 -126.7333 153° Southeast 450 518 31,000  Level Vancouver Center
Thu 11:19:45 AM 53.6833 -126.6500 157° South 480 552 31,000  Level Vancouver Center
Thu 11:20:45 AM 53.5500 -126.5167 149° Southeast 490 564 31,000  Level Vancouver Center
Thu 11:21:45 AM 53.4333 -126.4333 157° South 490 564 31,000  Level Vancouver Center
Thu 11:22:45 AM 53.3000 -126.3333 156° South 490 564 31,000  Level Vancouver Center
Thu 11:23:45 AM 53.1667 -126.2500 159° South 490 564 31,000  Level Vancouver Center
Thu 11:24:45 AM 53.0500 -126.1500 153° Southeast 490 564 31,000  Level Vancouver Center
Thu 11:25:45 AM 52.9167 -126.0333 152° Southeast 490 564 31,000  Level Vancouver Center
Thu 11:26:45 AM 52.8167 -125.9500 153° Southeast 490 564 31,000  Level Vancouver Center
Thu 11:27:45 AM 52.7000 -125.8667 157° South 490 564 31,000  Level Vancouver Center
Thu 11:28:45 AM 52.5667 -125.7667 155° Southeast 490 564 31,000  Level Vancouver Center
Thu 11:29:45 AM 52.4500 -125.6833 156° South 490 564 31,000  Level Vancouver Center
Thu 11:30:45 AM 52.3167 -125.5667 152° Southeast 490 564 31,000  Level Vancouver Center
Thu 11:31:45 AM 52.2000 -125.4833 156° South 480 552 31,000  Level Vancouver Center
Thu 11:32:45 AM 52.0667 -125.4000 159° South 490 564 31,000  Level Vancouver Center
Thu 11:33:45 AM 51.9500 -125.3167 156° South 480 552 31,000  Level Vancouver Center
Thu 11:34:45 AM 51.8333 -125.2333 156° South 480 552 31,000  Level Vancouver Center
Thu 11:35:45 AM 51.7167 -125.1500 156° South 470 541 31,000  Level Vancouver Center
Thu 11:36:45 AM 51.6000 -125.0667 156° South 470 541 31,000  Level Vancouver Center
Thu 11:37:45 AM 51.4667 -124.9833 159° South 470 541 31,000  Level Vancouver Center
Thu 11:38:45 AM 51.3500 -124.9000 156° South 470 541 31,000  Level Vancouver Center
Thu 11:39:45 AM 51.2333 -124.8167 156° South 470 541 31,000  Level Vancouver Center
Thu 11:40:45 AM 51.1167 -124.7333 156° South 470 541 31,000  Level Vancouver Center
Thu 11:41:45 AM 51.0000 -124.6500 156° South 470 541 31,000  Level Vancouver Center
Thu 11:42:45 AM 50.8667 -124.5333 151° Southeast 470 541 31,000  Level Vancouver Center
Thu 11:43:45 AM 50.7500 -124.4500 156° South 470 541 31,000 -150 Level Vancouver Center
Thu 11:44:45 AM 50.6167 -124.3833 162° South 470 541 30,700 -600 Descending Vancouver Center
Thu 11:45:45 AM 50.5000 -124.3000 156° South 470 541 29,800 -1,350 Descending Vancouver Center
Thu 11:46:45 AM 50.3833 -124.2167 156° South 470 541 28,000 -2,150 Descending Vancouver Center
Thu 11:47:45 AM 50.2833 -124.1333 152° Southeast 450 518 25,500 -2,450 Descending Vancouver Center
Thu 11:48:45 AM 50.1667 -124.0333 151° Southeast 430 495 23,100 -2,450 Descending Vancouver Center
Thu 11:49:45 AM 50.0667 -123.9500 152° Southeast 410 472 20,600 -2,400 Descending Vancouver Center
Thu 11:50:45 AM 49.9833 -123.8833 153° Southeast 390 449 18,300 -2,400 Descending Vancouver Center
Thu 11:51:45 AM 49.8833 -123.8000 152° Southeast 370 426 15,800 -2,150 Descending Vancouver Center
Thu 11:52:45 AM 49.8000 -123.7500 159° South 360 414 14,000 -900 Descending Vancouver Center
Thu 11:53:45 AM 49.7333 -123.6667 141° Southeast 310 357 14,000 -250 Level Vancouver Center
Thu 11:54:45 AM 49.6667 -123.6000 147° Southeast 290 334 13,500 -950 Descending Vancouver Center
Thu 11:55:45 AM 49.6000 -123.5333 147° Southeast 280 322 12,100 -1,450 Descending Vancouver Center
Thu 11:56:45 AM 49.5333 -123.4667 147° Southeast 280 322 10,600 -1,650 Descending Vancouver Center
Thu 11:57:45 AM 49.4667 -123.4167 154° Southeast 270 311 8,800 -1,750 Descending Vancouver Center
Thu 11:58:45 AM 49.4000 -123.3333 141° Southeast 270 311 7,100 -1,600 Descending Vancouver Center
Thu 11:59:45 AM 49.3500 -123.4167 227° Southwest 250 288 5,600 -1,250 Descending Vancouver Center
Thu 12:00:45 PM 49.3000 -123.4333 192° South 240 276 4,600 -1,250 Descending Vancouver Center
Thu 12:01:45 PM 49.2333 -123.4667 198° South 230 265 3,100 -1,150 Descending Vancouver Center
Thu 12:02:45 PM 49.2000 -123.3833 121° Southeast 200 230 2,300 -700 Descending Vancouver Center
Thu 12:03:45 PM 49.2000 -123.3167 90° East 170 196 1,700 -800 Descending Vancouver Center
Thu 12:04:45 PM 49.1833 -123.2667 117° Southeast 160 184 700 -1,000 Descending Vancouver Center

Login

Don't have an account? Register now (free) for customized features, flight alerts, and more!